Map

Track Data

SID SEASON NUMBER BASIN SUBBASIN NAME ISO_TIME NATURE LAT LON WMO_WIND WMO_PRES WMO_AGENCY TRACK_TYPE DIST2LAND LANDFALL IFLAG USA_AGENCY USA_ATCF_ID USA_LAT USA_LON USA_RECORD USA_STATUS USA_WIND USA_PRES USA_SSHS USA_R34_NE USA_R34_SE USA_R34_SW USA_R34_NW USA_R50_NE USA_R50_SE USA_R50_SW USA_R50_NW USA_R64_NE USA_R64_SE USA_R64_SW USA_R64_NW USA_POCI USA_ROCI USA_RMW USA_EYE TOKYO_LAT TOKYO_LON TOKYO_GRADE TOKYO_WIND TOKYO_PRES TOKYO_R50_DIR TOKYO_R50_LONG TOKYO_R50_SHORT TOKYO_R30_DIR TOKYO_R30_LONG TOKYO_R30_SHORT TOKYO_LAND CMA_LAT CMA_LON CMA_CAT CMA_WIND CMA_PRES HKO_LAT HKO_LON HKO_CAT HKO_WIND HKO_PRES NEWDELHI_LAT NEWDELHI_LON NEWDELHI_GRADE NEWDELHI_WIND NEWDELHI_PRES NEWDELHI_CI NEWDELHI_DP NEWDELHI_POCI REUNION_LAT REUNION_LON REUNION_TYPE REUNION_WIND REUNION_PRES REUNION_TNUM REUNION_CI REUNION_RMW REUNION_R34_NE REUNION_R34_SE REUNION_R34_SW REUNION_R34_NW REUNION_R50_NE REUNION_R50_SE REUNION_R50_SW REUNION_R50_NW REUNION_R64_NE REUNION_R64_SE REUNION_R64_SW REUNION_R64_NW BOM_LAT BOM_LON BOM_TYPE BOM_WIND BOM_PRES BOM_TNUM BOM_CI BOM_RMW BOM_R34_NE BOM_R34_SE BOM_R34_SW BOM_R34_NW BOM_R50_NE BOM_R50_SE BOM_R50_SW BOM_R50_NW BOM_R64_NE BOM_R64_SE BOM_R64_SW BOM_R64_NW BOM_ROCI BOM_POCI BOM_EYE BOM_POS_METHOD BOM_PRES_METHOD NADI_LAT NADI_LON NADI_CAT NADI_WIND NADI_PRES WELLINGTON_LAT WELLINGTON_LON WELLINGTON_WIND WELLINGTON_PRES DS824_LAT DS824_LON DS824_STAGE DS824_WIND DS824_PRES TD9636_LAT TD9636_LON TD9636_STAGE TD9636_WIND TD9636_PRES TD9635_LAT TD9635_LON TD9635_WIND TD9635_PRES TD9635_ROCI NEUMANN_LAT NEUMANN_LON NEUMANN_CLASS NEUMANN_WIND NEUMANN_PRES MLC_LAT MLC_LON MLC_CLASS MLC_WIND MLC_PRES USA_GUST BOM_GUST BOM_GUST_PER REUNION_GUST REUNION_GUST_PER USA_SEAHGT USA_SEARAD_NE USA_SEARAD_SE USA_SEARAD_SW USA_SEARAD_NW STORM_SPEED STORM_DIR
1963291N09092 1963 101 NI BB NOT_NAMED 1963-10-18 06:00:00 TS 9.30000 91.8000 main 559 559 O________O____ jtwc_io IO101963 9.30000 91.8000 -1 9.30000 91.8000 TC 5 296
1963291N09092 1963 101 NI BB NOT_NAMED 1963-10-18 09:00:00 TS 9.39754 91.5950 main 582 582 P________P____ IO101963 9.39754 91.5950 -1 9.39754 91.5950 TC 4 297
1963291N09092 1963 101 NI BB NOT_NAMED 1963-10-18 12:00:00 TS 9.50000 91.4000 main 605 605 O________O____ jtwc_io IO101963 9.50000 91.4000 -1 9.50000 91.4000 TC 25 4 299
1963291N09092 1963 101 NI BB NOT_NAMED 1963-10-18 15:00:00 TS 9.60663 91.2133 main 628 628 P________PO___ IO101963 9.60746 91.2150 -1 9.60746 91.2150 TC 25 9.60000 91.2000 1 4 296
1963291N09092 1963 101 NI BB NOT_NAMED 1963-10-18 18:00:00 TS 9.69401 90.9959 main 652 652 O________OP___ jtwc_io IO101963 9.70000 91.0000 -1 9.70000 91.0000 TC 25 9.67003 90.9796 1 5 287
1963291N09092 1963 101 NI BB NOT_NAMED 1963-10-18 21:00:00 TS 9.74779 90.7347 main 676 676 P________PP___ IO101963 9.74994 90.7374 -1 9.74994 90.7374 TC 25 9.74205 90.7273 1 6 281
1963291N09092 1963 101 NI BB NOT_NAMED 1963-10-19 00:00:00 TS 9.80603 90.4038 main 708 708 O________OP___ jtwc_io IO101963 9.80000 90.4000 -1 9.80000 90.4000 TC 25 9.81807 90.4114 1 7 282
1963291N09092 1963 101 NI BB NOT_NAMED 1963-10-19 03:00:00 TS 9.89992 90.0017 main 748 748 P________PO___ IO101963 9.89988 90.0025 -1 9.89988 90.0025 TC 25 9.90000 90.0000 1 9 282
1963291N09092 1963 101 NI BB NOT_NAMED 1963-10-19 06:00:00 TS 9.99587 89.4914 main 798 798 O________OP___ jtwc_io IO101963 10.0000 89.5000 -1 10.0000 89.5000 TC 25 9.98762 89.4742 1 11 278
1963291N09092 1963 101 NI BB NOT_NAMED 1963-10-19 09:00:00 TS 10.0628 88.8659 main 829 757 P________PP___ IO101963 10.0576 88.8650 -1 10.0576 88.8650 TC 25 10.0731 88.8677 1 13 275
1963291N09092 1963 101 NI BB NOT_NAMED 1963-10-19 12:00:00 TS 10.1157 88.2091 main 757 701 O________OP___ jtwc_io IO101963 10.1000 88.2000 -1 10.1000 88.2000 TC 25 10.1470 88.2273 1 12 275
1963291N09092 1963 101 NI BB NOT_NAMED 1963-10-19 15:00:00 TS 10.1716 87.6183 main 701 651 P________PO___ IO101963 10.1574 87.6275 -1 10.1574 87.6275 TC 25 10.2000 87.6000 1 11 275
1963291N09092 1963 101 NI BB NOT_NAMED 1963-10-19 18:00:00 TS 10.2028 87.0952 main 651 602 O________OP___ jtwc_io IO101963 10.2000 87.1000 -1 10.2000 87.1000 TC 25 10.2085 87.0855 1 10 272
1963291N09092 1963 101 NI BB NOT_NAMED 1963-10-19 21:00:00 TS 10.2044 86.6056 main 602 552 P________PP___ IO101963 10.2073 86.6150 -1 10.2073 86.6150 TC 30 10.1988 86.5869 1 10 270
1963291N09092 1963 101 NI BB NOT_NAMED 1963-10-20 00:00:00 TS 10.1966 86.0900 main 552 493 O________OP___ jtwc_io IO101963 10.2000 86.1000 -1 10.2000 86.1000 TC 35 10.1897 86.0699 1 11 269
1963291N09092 1963 101 NI BB NOT_NAMED 1963-10-20 03:00:00 TS 10.1899 85.4916 main 493 424 P________PO___ IO101963 10.1849 85.4874 -1 10.1849 85.4874 TC 35 10.2000 85.5000 2 13 271
1963291N09092 1963 101 NI BB NOT_NAMED 1963-10-20 06:00:00 TS 10.2098 84.8027 main 424 364 O________OP___ jtwc_io IO101963 10.2000 84.8000 -1 10.2000 84.8000 TC 35 10.2295 84.8080 2 14 274
1963291N09092 1963 101 NI BB NOT_NAMED 1963-10-20 09:00:00 TS 10.2794 84.0549 main 364 298 P________PP___ IO101963 10.2775 84.0500 -1 10.2775 84.0500 TC 50 10.2831 84.0647 2 15 277
1963291N09092 1963 101 NI BB NOT_NAMED 1963-10-20 12:00:00 TS 10.3900 83.3047 main 298 247 O________OP___ jtwc_io IO101963 10.4000 83.3000 -1 10.4000 83.3000 TC 65 10.3701 83.3140 2 14 280
1963291N09092 1963 101 NI BB NOT_NAMED 1963-10-20 15:00:00 TS 10.5232 82.6183 main 238 203 P________PO___ IO101963 10.5348 82.6274 -1 10.5348 82.6274 TC 50 10.5000 82.6000 4 13 283
1963291N09092 1963 101 NI BB NOT_NAMED 1963-10-20 18:00:00 TS 10.6884 81.9859 main 204 163 O________OP___ jtwc_io IO101963 10.7000 82.0000 -1 10.7000 82.0000 TC 35 10.6652 81.9576 4 13 286
1963291N09092 1963 101 NI BB NOT_NAMED 1963-10-20 21:00:00 TS 10.8765 81.3667 main 163 98 P________PP___ IO101963 10.8775 81.3699 -1 10.8775 81.3699 TC 50 10.8745 81.3601 4 12 290
1963291N09092 1963 101 NI BB NOT_NAMED 1963-10-21 00:00:00 TS 11.1072 80.8025 main 98 49 O________OP___ jtwc_io IO101963 11.1000 80.8000 -1 11.1000 80.8000 TC 65 11.1216 80.8075 4 12 296
1963291N09092 1963 101 NI BB NOT_NAMED 1963-10-21 03:00:00 TS 11.3849 80.3183 main 49 10 P________PO___ IO101963 11.3773 80.3274 -1 11.3773 80.3274 TC 50 11.4000 80.3000 4 11 303
1963291N09092 1963 101 NI BB NOT_NAMED 1963-10-21 06:00:00 TS 11.7013 79.8786 main 10 0 O________OP___ jtwc_io IO101963 11.7000 79.9000 -1 11.7000 79.9000 TC 35 11.7038 79.8358 4 11 307
1963291N09092 1963 101 NI BB NOT_NAMED 1963-10-21 09:00:00 TS 12.0447 79.4324 main 0 0 P________PP___ IO101963 12.0500 79.4425 -1 12.0500 79.4425 TC 30 12.0342 79.4123 4 11 309
1963291N09092 1963 101 NI BB NOT_NAMED 1963-10-21 12:00:00 TS 12.3909 79.0025 main 0 0 O________OP___ jtwc_io IO101963 12.4000 79.0000 -1 12.4000 79.0000 TC 25 12.3726 79.0076 4 11 309
1963291N09092 1963 101 NI BB NOT_NAMED 1963-10-21 15:00:00 TS 12.7099 78.6049 main 0 0 P________PO___ IO101963 12.7148 78.6073 -1 12.7148 78.6073 TC 25 12.7000 78.6000 1 10 307
1963291N09092 1963 101 NI BB NOT_NAMED 1963-10-21 18:00:00 TS 12.9939 78.1681 main 0 0 O________OP___ jtwc_io IO101963 13.0000 78.2000 -1 13.0000 78.2000 TC 25 12.9816 78.1044 1 11 301
1963291N09092 1963 101 NI AS NOT_NAMED 1963-10-21 21:00:00 TS 13.2502 77.6650 main 0 0 P________PP___ IO101963 13.2501 77.6924 -1 13.2501 77.6924 TC 25 13.2505 77.6102 1 11 298
1963291N09092 1963 101 NI AS NOT_NAMED 1963-10-22 00:00:00 TS 13.5064 77.1869 main 0 0 O________OP___ jtwc_io IO101963 13.5000 77.2000 -1 13.5000 77.2000 TC 25 13.5191 77.1608 1 10 302
1963291N09092 1963 101 NI AS NOT_NAMED 1963-10-22 03:00:00 TS 13.7900 76.7933 main 0 0 P________PO___ IO101963 13.7850 76.7900 -1 13.7850 76.7900 TC 25 13.8000 76.8000 1 9 313
1963291N09092 1963 101 NI AS NOT_NAMED 1963-10-22 06:00:00 TS 14.1074 76.5163 main 0 0 O________OP___ jtwc_io IO101963 14.1000 76.5000 -1 14.1000 76.5000 TC 25 14.1223 76.5488 1 8 327
1963291N09092 1963 101 NI AS NOT_NAMED 1963-10-22 09:00:00 TS 14.4523 76.3574 main 0 0 P________PP___ IO101963 14.4499 76.3399 -1 14.4499 76.3399 TC 25 14.4569 76.3923 1 7 343
1963291N09092 1963 101 NI AS NOT_NAMED 1963-10-22 12:00:00 TS 14.7960 76.3049 main 0 0 O________OP___ jtwc_io IO101963 14.8000 76.3000 -1 14.8000 76.3000 TC 25 14.7881 76.3146 1 7 357
1963291N09092 1963 101 NI AS NOT_NAMED 1963-10-22 15:00:00 TS 15.1100 76.3183 main 0 0 P________PO___ IO101963 15.1150 76.3274 -1 15.1150 76.3274 TC 25 15.1000 76.3000 1 6 7
1963291N09092 1963 101 NI AS NOT_NAMED 1963-10-22 18:00:00 TS 15.3919 76.3710 main 0 0 O________OP___ jtwc_io IO101963 15.4000 76.4000 -1 15.4000 76.4000 TC 25 15.3756 76.3131 1 6 10
1963291N09092 1963 101 NI AS NOT_NAMED 1963-10-22 21:00:00 TS 15.6533 76.4224 main 0 0 P________PP___ IO101963 15.6650 76.4425 -1 15.6650 76.4425 TC 25 15.6300 76.3821 1 5 13
1963291N09092 1963 101 NI AS NOT_NAMED 1963-10-23 00:00:00 TS 15.8898 76.4950 main 0 0 O________OP___ jtwc_io IO101963 15.9000 76.5000 -1 15.9000 76.5000 TC 25 15.8694 76.4851 1 5 20
1963291N09092 1963 101 NI AS NOT_NAMED 1963-10-23 03:00:00 TS 16.1000 76.5950 main 0 0 P________PO___ IO101963 16.1000 76.5925 -1 16.1000 76.5925 TC 25 16.1000 76.6000 1 5 24
1963291N09092 1963 101 NI AS NOT_NAMED 1963-10-23 06:00:00 TS 16.3134 76.6936 main 0 0 O________OP___ jtwc_io IO101963 16.3000 76.7000 -1 16.3000 76.7000 TC 25 16.3403 76.6807 1 5 22
1963291N09092 1963 101 NI AS NOT_NAMED 1963-10-23 09:00:00 TS 16.5575 76.7901 main 0 0 P________PP___ IO101963 16.5500 76.8000 -1 16.5500 76.8000 TC 25 16.5724 76.7701 1 5 21
1963291N09092 1963 101 NI AS NOT_NAMED 1963-10-23 12:00:00 TS 16.7978 76.8915 main 0 0 O________OP___ jtwc_io IO101963 16.8000 76.9000 -1 16.8000 76.9000 TC 25 16.7934 76.8745 1 5 23
1963291N09092 1963 101 NI AS NOT_NAMED 1963-10-23 15:00:00 TS 17.0100 76.9900 main 0 0 P________PO___ IO101963 17.0150 76.9851 -1 17.0150 76.9851 TC 25 17.0000 77.0000 1 5 28
1963291N09092 1963 101 NI AS NOT_NAMED 1963-10-23 18:00:00 TS 17.1937 77.1098 main 0 0 O________OP___ jtwc_io IO101963 17.2000 77.1000 -1 17.2000 77.1000 TC 25 17.1811 77.1294 1 4 39
1963291N09092 1963 101 NI AS NOT_NAMED 1963-10-23 21:00:00 TS 17.3499 77.2794 main 0 0 P________PP___ IO101963 17.3500 77.2776 -1 17.3500 77.2776 TC 25 17.3497 77.2830 1 5 49
1963291N09092 1963 101 NI AS NOT_NAMED 1963-10-24 00:00:00 TS 17.5062 77.4900 main 0 0 O________OP___ jtwc_io IO101963 17.5000 77.5000 -1 17.5000 77.5000 TC 25 17.5185 77.4701 1 5 51
1963291N09092 1963 101 NI AS NOT_NAMED 1963-10-24 03:00:00 TS 17.6900 77.7184 main 0 0 P________PO___ IO101963 17.6849 77.7276 -1 17.6849 77.7276 TC 25 17.7000 77.7000 1 6 50
1963291N09092 1963 101 NI AS NOT_NAMED 1963-10-24 06:00:00 TS 17.9117 77.9911 main 0 0 O________OP___ jtwc_io IO101963 17.9000 78.0000 -1 17.9000 78.0000 TC 25 17.9350 77.9734 1 7 51
1963291N09092 1963 101 NI BB NOT_NAMED 1963-10-24 09:00:00 TS 18.1650 78.3247 main 0 0 P________PP___ IO101963 18.1575 78.3424 -1 18.1575 78.3424 TC 25 18.1800 78.2894 1 8 53
1963291N09092 1963 101 NI BB NOT_NAMED 1963-10-24 12:00:00 TS 18.4033 78.6786 main 0 0 O________OP___ jtwc_io IO101963 18.4000 78.7000 -1 18.4000 78.7000 TC 25 18.4100 78.6359 1 8 57
1963291N09092 1963 101 NI BB NOT_NAMED 1963-10-24 15:00:00 TS 18.5866 79.0001 main 0 0 P________PO___ IO101963 18.5799 79.0001 -1 18.5799 79.0001 TC 25 18.6000 79.0000 1 7 63
1963291N09092 1963 101 NI BB NOT_NAMED 1963-10-24 18:00:00 TS 18.7043 79.3029 main 0 0 O________OP___ jtwc_io IO101963 18.7000 79.3000 -1 18.7000 79.3000 TC 25 18.7130 79.3086 1 6 73
1963291N09092 1963 101 NI BB NOT_NAMED 1963-10-24 21:00:00 TS 18.7668 79.6214 main 0 0 P________PP___ IO101963 18.7573 79.6127 -1 18.7573 79.6127 TC 25 18.7858 79.6387 1 7 81
1963291N09092 1963 101 NI BB NOT_NAMED 1963-10-25 00:00:00 TS 18.8136 80.0081 main 0 0 O________OP___ jtwc_io IO101963 18.8000 80.0000 -1 18.8000 80.0000 TC 25 18.8408 80.0243 1 8 81
1963291N09092 1963 101 NI BB NOT_NAMED 1963-10-25 03:00:00 TS 18.8948 80.4934 main 0 0 P________PO___ IO101963 18.8923 80.4900 -1 18.8923 80.4900 TC 25 18.9000 80.5000 1 11 80
1963291N09092 1963 101 NI BB NOT_NAMED 1963-10-25 06:00:00 TS 19.0020 81.1061 main 0 0 O________OP___ jtwc_io IO101963 19.0000 81.1000 -1 19.0000 81.1000 TC 25 19.0059 81.1183 1 13 80
1963291N09092 1963 101 NI BB NOT_NAMED 1963-10-25 09:00:00 TS 19.1106 81.8314 main 0 0 P________PP___ IO101963 19.1077 81.8349 -1 19.1077 81.8349 TC 25 19.1163 81.8244 1 14 82
1963291N09092 1963 101 NI BB NOT_NAMED 1963-10-25 12:00:00 TS 19.2061 82.5894 main 0 0 O________OP___ jtwc_io IO101963 19.2000 82.6000 -1 19.2000 82.6000 TC 25 19.2183 82.5683 1 14 83
1963291N09092 1963 101 NI BB NOT_NAMED 1963-10-25 15:00:00 TS 19.2715 83.2818 main 0 0 P________PO___ IO101963 19.2572 83.2726 -1 19.2572 83.2726 TC 30 19.3000 83.3000 1 13 85
1963291N09092 1963 101 NI BB NOT_NAMED 1963-10-25 18:00:00 TS 19.3150 83.9089 main 0 0 O________OP___ jtwc_io IO101963 19.3000 83.9000 -1 19.3000 83.9000 TC 35 19.3450 83.9268 1 12 86
1963291N09092 1963 101 NI BB NOT_NAMED 1963-10-25 21:00:00 TS 19.3615 84.5069 main 0 0 P________PP___ IO101963 19.3571 84.4925 -1 19.3571 84.4925 TC 50 19.3703 84.5357 1 11 86
1963291N09092 1963 101 NI BB NOT_NAMED 1963-10-26 00:00:00 TS 19.3952 85.1172 main 10 10 O________OP___ jtwc_io IO101963 19.4000 85.1000 -1 19.4000 85.1000 TC 65 19.3856 85.1517 1 12 88
1963291N09092 1963 101 NI BB NOT_NAMED 1963-10-26 03:00:00 TS 19.3999 85.7851 main 44 44 P________PO___ IO101963 19.3998 85.7777 -1 19.3998 85.7777 TC 65 19.4000 85.8000 4 13 90
1963291N09092 1963 101 NI BB NOT_NAMED 1963-10-26 06:00:00 TS 19.4016 86.5076 main 67 67 O________OP___ jtwc_io IO101963 19.4000 86.5000 -1 19.4000 86.5000 TC 65 19.4047 86.5229 4 14 89
1963291N09092 1963 101 NI BB NOT_NAMED 1963-10-26 09:00:00 TS 19.4323 87.2495 main 107 107 P________PP___ IO101963 19.4422 87.2350 -1 19.4422 87.2350 TC 65 19.4125 87.2786 4 14 87
1963291N09092 1963 101 NI BB NOT_NAMED 1963-10-26 12:00:00 TS 19.4797 88.0150 main 162 162 O________OP___ jtwc_io IO101963 19.5000 88.0000 -1 19.5000 88.0000 TC 65 19.4390 88.0450 4 15 87
1963291N09092 1963 101 NI BB NOT_NAMED 1963-10-26 15:00:00 TS 19.5183 88.8052 main 230 223 P________PO___ IO101963 19.5274 88.8078 -1 19.5274 88.8078 TC 65 19.5000 88.8000 4 15 85
1963291N09092 1963 101 NI BB NOT_NAMED 1963-10-26 18:00:00 TS 19.6076 89.5995 main 229 223 O________OP___ jtwc_io IO101963 19.6000 89.6000 -1 19.6000 89.6000 TC 65 19.6229 89.5984 4 15 80
1963291N09092 1963 101 NI BB NOT_NAMED 1963-10-26 21:00:00 TS 19.7878 90.3533 main 224 165 P________PP___ IO101963 19.7924 90.3446 -1 19.7924 90.3446 TC 65 19.7787 90.3707 4 14 74
1963291N09092 1963 101 NI BB NOT_NAMED 1963-10-27 00:00:00 TS 19.9817 91.0193 main 165 107 O________OP___ jtwc_io IO101963 20.0000 91.0000 -1 20.0000 91.0000 TC 65 19.9450 91.0579 4 12 75
1963291N09092 1963 101 NI BB NOT_NAMED 1963-10-27 03:00:00 TS 20.1099 91.5935 main 107 68 P________PO___ IO101963 20.1149 91.5902 -1 20.1149 91.5902 TC 50 20.1000 91.6000 4 9 76
1963291N09092 1963 101 NI BB NOT_NAMED 1963-10-27 06:00:00 TS 20.2042 91.9796 main 68 53 O________OP___ jtwc_io IO101963 20.2000 92.0000 -1 20.2000 92.0000 TC 35 20.2127 91.9388 4 6 70
1963291N09092 1963 101 NI BB NOT_NAMED 1963-10-27 09:00:00 TS 20.3042 92.1503 main 45 38 P________PP___ IO101963 20.2997 92.1601 -1 20.2997 92.1601 TC 35 20.3131 92.1308 4 3 48
1963291N09092 1963 101 NI BB NOT_NAMED 1963-10-27 12:00:00 TS 20.4023 92.2108 main 38 23 O________OP___ jtwc_io IO101963 20.4000 92.2000 -1 20.4000 92.2000 TC 35 20.4070 92.2324 4 2 36
1963291N09092 1963 101 NI BB NOT_NAMED 1963-10-27 15:00:00 TS 20.5000 92.3000 main 23 10 P________PO___ IO101963 20.5000 92.3000 -1 20.5000 92.3000 TC 30 20.5000 92.3000 2 3 41
1963291N09092 1963 101 NI BB NOT_NAMED 1963-10-27 18:00:00 TS 20.5985 92.3920 main 10 0 O________OP___ jtwc_io IO101963 20.6000 92.4000 -1 20.6000 92.4000 TC 25 20.5963 92.3800 2 3 42
1963291N09092 1963 101 NI BB NOT_NAMED 1963-10-27 21:00:00 TS 20.6982 92.4902 main 0 0 P________PP___ IO101963 20.7000 92.5000 -1 20.7000 92.5000 TC 25 20.6958 92.4771 2 3 44
1963291N09092 1963 101 NI BB NOT_NAMED 1963-10-28 00:00:00 TS 20.7987 92.5928 main 0 0 O________OP___ jtwc_io IO101963 20.8000 92.6000 -1 20.8000 92.6000 TC 25 20.7974 92.5856 2 3 44
1963291N09092 1963 101 NI BB NOT_NAMED 1963-10-28 03:00:00 NR 20.9000 92.7000 main 0 __________O___ IO101963 -1 TC 20.9000 92.7000 1 3 45

About IBTrACS Database

This database is a web-friendly format of International Best Track Archive for Climate Stewardship (IBTrACS), a global best track data archive curated by NOAA dating back to 1842.

Updated: 2021-12-06